sensor_id;sensor_type;location;lat;lon;timestamp;pressure;altitude;pressure_sealevel;temperature;humidity
44027;BME280;29696;55.698;37.460;2022-12-26T00:01:55;100686.94;;;-2.47;66.39
44027;BME280;29696;55.698;37.460;2022-12-26T00:04:21;100691.19;;;-2.45;66.41
44027;BME280;29696;55.698;37.460;2022-12-26T00:06:48;100683.50;;;-2.48;66.55
44027;BME280;29696;55.698;37.460;2022-12-26T00:09:14;100690.41;;;-2.50;66.48
44027;BME280;29696;55.698;37.460;2022-12-26T00:11:40;100686.19;;;-2.54;66.63
44027;BME280;29696;55.698;37.460;2022-12-26T00:14:10;100691.31;;;-2.53;66.83
44027;BME280;29696;55.698;37.460;2022-12-26T00:16:38;100693.97;;;-2.56;67.08
44027;BME280;29696;55.698;37.460;2022-12-26T00:19:04;100692.28;;;-2.58;67.06
44027;BME280;29696;55.698;37.460;2022-12-26T00:21:30;100700.13;;;-2.63;67.01
44027;BME280;29696;55.698;37.460;2022-12-26T00:23:56;100700.13;;;-2.64;67.06
44027;BME280;29696;55.698;37.460;2022-12-26T00:26:23;100693.22;;;-2.64;67.33
44027;BME280;29696;55.698;37.460;2022-12-26T00:28:50;100701.78;;;-2.59;67.43
44027;BME280;29696;55.698;37.460;2022-12-26T00:31:21;100705.16;;;-2.54;67.61
44027;BME280;29696;55.698;37.460;2022-12-26T00:33:48;100705.94;;;-2.50;67.67
44027;BME280;29696;55.698;37.460;2022-12-26T00:36:15;100698.97;;;-2.46;67.92
44027;BME280;29696;55.698;37.460;2022-12-26T00:38:42;100711.03;;;-2.44;67.97
44027;BME280;29696;55.698;37.460;2022-12-26T00:41:09;100714.44;;;-2.42;67.98
44027;BME280;29696;55.698;37.460;2022-12-26T00:43:35;100713.59;;;-2.44;68.16
44027;BME280;29696;55.698;37.460;2022-12-26T00:46:01;100715.31;;;-2.43;67.98
44027;BME280;29696;55.698;37.460;2022-12-26T00:48:28;100727.41;;;-2.43;68.13
44027;BME280;29696;55.698;37.460;2022-12-26T00:50:54;100723.13;;;-2.44;67.97
44027;BME280;29696;55.698;37.460;2022-12-26T00:53:21;100721.41;;;-2.47;68.10
44027;BME280;29696;55.698;37.460;2022-12-26T00:55:47;100720.56;;;-2.47;68.20
44027;BME280;29696;55.698;37.460;2022-12-26T00:58:14;100723.16;;;-2.49;68.13
44027;BME280;29696;55.698;37.460;2022-12-26T01:00:40;100714.56;;;-2.49;68.31
44027;BME280;29696;55.698;37.460;2022-12-26T01:03:06;100717.25;;;-2.54;68.09
44027;BME280;29696;55.698;37.460;2022-12-26T01:05:33;100725.91;;;-2.58;68.15
44027;BME280;29696;55.698;37.460;2022-12-26T01:07:59;100722.53;;;-2.62;67.91
44027;BME280;29696;55.698;37.460;2022-12-26T01:10:25;100725.22;;;-2.68;67.63
44027;BME280;29696;55.698;37.460;2022-12-26T01:12:51;100718.34;;;-2.70;67.75
44027;BME280;29696;55.698;37.460;2022-12-26T01:15:17;100720.97;;;-2.72;67.63
44027;BME280;29696;55.698;37.460;2022-12-26T01:17:45;100720.94;;;-2.70;67.83
44027;BME280;29696;55.698;37.460;2022-12-26T01:20:11;100718.38;;;-2.72;67.55
44027;BME280;29696;55.698;37.460;2022-12-26T01:22:37;100713.22;;;-2.73;67.47
44027;BME280;29696;55.698;37.460;2022-12-26T01:25:03;100724.47;;;-2.76;67.27
44027;BME280;29696;55.698;37.460;2022-12-26T01:27:29;100721.88;;;-2.76;67.31
44027;BME280;29696;55.698;37.460;2022-12-26T01:29:55;100720.19;;;-2.77;67.14
44027;BME280;29696;55.698;37.460;2022-12-26T01:32:21;100731.41;;;-2.78;67.22
44027;BME280;29696;55.698;37.460;2022-12-26T01:34:47;100723.66;;;-2.78;67.06
44027;BME280;29696;55.698;37.460;2022-12-26T01:37:14;100724.50;;;-2.79;66.88
44027;BME280;29696;55.698;37.460;2022-12-26T01:39:40;100720.19;;;-2.79;66.94
44027;BME280;29696;55.698;37.460;2022-12-26T01:42:16;100721.91;;;-2.78;67.02
44027;BME280;29696;55.698;37.460;2022-12-26T01:50:56;100727.78;;;-2.68;66.99
44027;BME280;29696;55.698;37.460;2022-12-26T01:56:16;100724.41;;;-2.71;66.09
44027;BME280;29696;55.698;37.460;2022-12-26T01:58:43;100734.78;;;-2.73;66.25
44027;BME280;29696;55.698;37.460;2022-12-26T02:01:10;100732.19;;;-2.73;65.92
44027;BME280;29696;55.698;37.460;2022-12-26T02:03:38;100733.88;;;-2.70;66.21
44027;BME280;29696;55.698;37.460;2022-12-26T02:06:24;100728.69;;;-2.70;65.99
44027;BME280;29696;55.698;37.460;2022-12-26T02:08:50;100723.56;;;-2.73;65.93
44027;BME280;29696;55.698;37.460;2022-12-26T02:11:32;100723.63;;;-2.77;65.43
44027;BME280;29696;55.698;37.460;2022-12-26T02:14:00;100721.91;;;-2.78;65.64
44027;BME280;29696;55.698;37.460;2022-12-26T02:16:26;100719.28;;;-2.76;65.64
44027;BME280;29696;55.698;37.460;2022-12-26T02:18:52;100713.28;;;-2.77;65.69
44027;BME280;29696;55.698;37.460;2022-12-26T02:21:28;100707.25;;;-2.77;65.56
44027;BME280;29696;55.698;37.460;2022-12-26T02:32:33;100717.53;;;-2.74;65.79
44027;BME280;29696;55.698;37.460;2022-12-26T02:40:44;100724.50;;;-2.78;65.22
44027;BME280;29696;55.698;37.460;2022-12-26T02:43:21;100724.56;;;-2.81;65.22
44027;BME280;29696;55.698;37.460;2022-12-26T02:55:26;100717.72;;;-2.86;65.38
44027;BME280;29696;55.698;37.460;2022-12-26T02:57:57;100723.75;;;-2.87;65.17
44027;BME280;29696;55.698;37.460;2022-12-26T03:00:44;100722.06;;;-2.87;65.14
44027;BME280;29696;55.698;37.460;2022-12-26T03:03:32;100713.50;;;-2.92;64.94
44027;BME280;29696;55.698;37.460;2022-12-26T03:06:18;100723.84;;;-2.92;65.07
44027;BME280;29696;55.698;37.460;2022-12-26T03:09:25;100721.31;;;-2.95;64.91
44027;BME280;29696;55.698;37.460;2022-12-26T03:15:23;100728.25;;;-2.99;65.00
44027;BME280;29696;55.698;37.460;2022-12-26T03:17:56;100725.69;;;-3.00;64.97
44027;BME280;29696;55.698;37.460;2022-12-26T03:20:28;100730.84;;;-3.00;65.24
44027;BME280;29696;55.698;37.460;2022-12-26T03:23:00;100736.88;;;-2.98;65.33
44027;BME280;29696;55.698;37.460;2022-12-26T03:28:31;100727.47;;;-3.04;65.00
44027;BME280;29696;55.698;37.460;2022-12-26T03:30:58;100725.78;;;-3.06;65.03
44027;BME280;29696;55.698;37.460;2022-12-26T03:42:51;100727.47;;;-3.04;65.33
44027;BME280;29696;55.698;37.460;2022-12-26T03:51:50;100720.41;;;-2.94;65.49
44027;BME280;29696;55.698;37.460;2022-12-26T03:57:47;100723.00;;;-2.92;65.35
44027;BME280;29696;55.698;37.460;2022-12-26T04:00:34;100722.19;;;-2.96;65.01
44027;BME280;29696;55.698;37.460;2022-12-26T04:03:20;100730.00;;;-2.99;64.75
44027;BME280;29696;55.698;37.460;2022-12-26T04:06:05;100732.59;;;-3.01;64.85
44027;BME280;29696;55.698;37.460;2022-12-26T04:08:59;100735.19;;;-3.01;65.05
44027;BME280;29696;55.698;37.460;2022-12-26T04:11:45;100730.81;;;-2.97;65.45
44027;BME280;29696;55.698;37.460;2022-12-26T04:17:45;100735.84;;;-2.88;65.58
44027;BME280;29696;55.698;37.460;2022-12-26T04:20:34;100736.66;;;-2.84;65.69
44027;BME280;29696;55.698;37.460;2022-12-26T04:23:04;100730.63;;;-2.85;65.72
44027;BME280;29696;55.698;37.460;2022-12-26T04:25:53;100730.63;;;-2.85;65.73
44027;BME280;29696;55.698;37.460;2022-12-26T04:28:40;100734.06;;;-2.84;65.60
44027;BME280;29696;55.698;37.460;2022-12-26T04:31:29;100732.34;;;-2.84;65.46
44027;BME280;29696;55.698;37.460;2022-12-26T04:34:21;100731.53;;;-2.86;65.39
44027;BME280;29696;55.698;37.460;2022-12-26T04:37:13;100732.44;;;-2.90;65.42
44027;BME280;29696;55.698;37.460;2022-12-26T04:40:01;100735.91;;;-2.91;65.17
44027;BME280;29696;55.698;37.460;2022-12-26T04:42:48;100739.34;;;-2.90;65.35
44027;BME280;29696;55.698;37.460;2022-12-26T04:45:33;100743.66;;;-2.89;65.14
44027;BME280;29696;55.698;37.460;2022-12-26T04:47:59;100746.19;;;-2.88;65.37
44027;BME280;29696;55.698;37.460;2022-12-26T04:50:50;100751.38;;;-2.88;65.48
44027;BME280;29696;55.698;37.460;2022-12-26T04:53:17;100746.19;;;-2.88;65.08
44027;BME280;29696;55.698;37.460;2022-12-26T04:55:43;100747.97;;;-2.91;64.54
44027;BME280;29696;55.698;37.460;2022-12-26T04:58:09;100759.22;;;-2.92;64.73
44027;BME280;29696;55.698;37.460;2022-12-26T05:00:36;100756.63;;;-2.92;64.73
44027;BME280;29696;55.698;37.460;2022-12-26T05:03:02;100768.66;;;-2.91;64.78
44027;BME280;29696;55.698;37.460;2022-12-26T05:05:47;100766.09;;;-2.91;64.60
44027;BME280;29696;55.698;37.460;2022-12-26T05:08:34;100774.75;;;-2.94;64.41
44027;BME280;29696;55.698;37.460;2022-12-26T05:11:20;100771.28;;;-2.94;64.50
44027;BME280;29696;55.698;37.460;2022-12-26T05:13:46;100778.16;;;-2.93;64.24
44027;BME280;29696;55.698;37.460;2022-12-26T05:16:12;100782.50;;;-2.94;64.64
44027;BME280;29696;55.698;37.460;2022-12-26T05:18:57;100779.91;;;-2.92;64.53
44027;BME280;29696;55.698;37.460;2022-12-26T05:21:41;100782.44;;;-2.91;64.67
44027;BME280;29696;55.698;37.460;2022-12-26T05:24:27;100778.16;;;-2.93;64.37
44027;BME280;29696;55.698;37.460;2022-12-26T05:27:16;100776.56;;;-2.99;64.23
44027;BME280;29696;55.698;37.460;2022-12-26T05:30:01;100767.97;;;-3.03;65.20
44027;BME280;29696;55.698;37.460;2022-12-26T05:32:28;100777.53;;;-3.08;65.36
44027;BME280;29696;55.698;37.460;2022-12-26T05:35:12;100783.59;;;-3.10;64.94
44027;BME280;29696;55.698;37.460;2022-12-26T05:37:38;100779.28;;;-3.10;64.97
44027;BME280;29696;55.698;37.460;2022-12-26T05:40:05;100776.69;;;-3.10;65.01
44027;BME280;29696;55.698;37.460;2022-12-26T05:42:31;100781.81;;;-3.08;65.28
44027;BME280;29696;55.698;37.460;2022-12-26T05:44:57;100777.53;;;-3.09;65.21
44027;BME280;29696;55.698;37.460;2022-12-26T05:47:23;100776.66;;;-3.08;65.34
44027;BME280;29696;55.698;37.460;2022-12-26T05:49:49;100780.16;;;-3.11;65.44
44027;BME280;29696;55.698;37.460;2022-12-26T05:52:15;100780.16;;;-3.11;65.25
44027;BME280;29696;55.698;37.460;2022-12-26T05:54:41;100775.84;;;-3.10;65.25
44027;BME280;29696;55.698;37.460;2022-12-26T05:57:07;100776.72;;;-3.13;64.97
44027;BME280;29696;55.698;37.460;2022-12-26T05:59:33;100777.59;;;-3.15;64.67
44027;BME280;29696;55.698;37.460;2022-12-26T06:01:59;100784.53;;;-3.17;64.95
44027;BME280;29696;55.698;37.460;2022-12-26T06:04:25;100768.19;;;-3.19;64.97
44027;BME280;29696;55.698;37.460;2022-12-26T06:06:52;100781.13;;;-3.19;65.02
44027;BME280;29696;55.698;37.460;2022-12-26T06:09:23;100780.28;;;-3.20;64.95
44027;BME280;29696;55.698;37.460;2022-12-26T06:11:50;100782.81;;;-3.18;65.31
44027;BME280;29696;55.698;37.460;2022-12-26T06:14:16;100788.00;;;-3.18;65.35
44027;BME280;29696;55.698;37.460;2022-12-26T06:16:42;100790.53;;;-3.15;65.66
44027;BME280;29696;55.698;37.460;2022-12-26T06:19:08;100785.41;;;-3.17;65.39
44027;BME280;29696;55.698;37.460;2022-12-26T06:21:34;100788.84;;;-3.18;65.46
44027;BME280;29696;55.698;37.460;2022-12-26T06:24:00;100785.44;;;-3.22;65.42
44027;BME280;29696;55.698;37.460;2022-12-26T06:26:26;100795.78;;;-3.23;65.32
44027;BME280;29696;55.698;37.460;2022-12-26T06:28:52;100794.94;;;-3.24;65.33
44027;BME280;29696;55.698;37.460;2022-12-26T06:31:19;100802.72;;;-3.25;65.41
44027;BME280;29696;55.698;37.460;2022-12-26T06:33:46;100810.44;;;-3.24;65.49
44027;BME280;29696;55.698;37.460;2022-12-26T06:36:13;100809.56;;;-3.21;65.59
44027;BME280;29696;55.698;37.460;2022-12-26T06:38:39;100810.38;;;-3.17;65.80
44027;BME280;29696;55.698;37.460;2022-12-26T06:41:06;100819.78;;;-3.12;65.86
44027;BME280;29696;55.698;37.460;2022-12-26T06:43:33;100819.72;;;-3.06;65.85
44027;BME280;29696;55.698;37.460;2022-12-26T06:45:59;100824.84;;;-3.03;65.94
44027;BME280;29696;55.698;37.460;2022-12-26T06:48:26;100827.38;;;-2.98;65.87
44027;BME280;29696;55.698;37.460;2022-12-26T06:50:52;100831.63;;;-2.94;65.85
44027;BME280;29696;55.698;37.460;2022-12-26T06:53:22;100835.03;;;-2.90;65.55
44027;BME280;29696;55.698;37.460;2022-12-26T06:55:48;100839.31;;;-2.86;65.43
44027;BME280;29696;55.698;37.460;2022-12-26T06:58:15;100834.94;;;-2.83;65.28
44027;BME280;29696;55.698;37.460;2022-12-26T07:00:41;100846.94;;;-2.79;65.20
44027;BME280;29696;55.698;37.460;2022-12-26T07:03:07;100838.28;;;-2.74;65.02
44027;BME280;29696;55.698;37.460;2022-12-26T07:05:36;100837.34;;;-2.69;64.88
44027;BME280;29696;55.698;37.460;2022-12-26T07:08:02;100837.28;;;-2.64;65.08
44027;BME280;29696;55.698;37.460;2022-12-26T07:10:28;100841.56;;;-2.60;65.08
44027;BME280;29696;55.698;37.460;2022-12-26T07:12:54;100842.34;;;-2.57;64.27
44027;BME280;29696;55.698;37.460;2022-12-26T07:15:20;100841.50;;;-2.59;63.87
44027;BME280;29696;55.698;37.460;2022-12-26T07:17:46;100830.31;;;-2.61;63.60
44027;BME280;29696;55.698;37.460;2022-12-26T07:20:12;100837.22;;;-2.61;63.95
44027;BME280;29696;55.698;37.460;2022-12-26T07:22:38;100835.44;;;-2.58;64.08
44027;BME280;29696;55.698;37.460;2022-12-26T07:25:04;100837.13;;;-2.54;64.21
44027;BME280;29696;55.698;37.460;2022-12-26T07:27:30;100835.34;;;-2.50;64.59
44027;BME280;29696;55.698;37.460;2022-12-26T07:29:57;100833.56;;;-2.46;64.87
44027;BME280;29696;55.698;37.460;2022-12-26T07:32:23;100834.38;;;-2.43;64.84
44027;BME280;29696;55.698;37.460;2022-12-26T07:34:49;100843.91;;;-2.45;64.05
44027;BME280;29696;55.698;37.460;2022-12-26T07:37:15;100847.41;;;-2.47;64.33
44027;BME280;29696;55.698;37.460;2022-12-26T07:39:41;100845.72;;;-2.50;64.27
44027;BME280;29696;55.698;37.460;2022-12-26T07:42:07;100837.94;;;-2.52;64.49
44027;BME280;29696;55.698;37.460;2022-12-26T07:44:33;100841.47;;;-2.56;64.39
44027;BME280;29696;55.698;37.460;2022-12-26T07:46:59;100845.81;;;-2.58;64.53
44027;BME280;29696;55.698;37.460;2022-12-26T07:49:25;100848.38;;;-2.58;64.79
44027;BME280;29696;55.698;37.460;2022-12-26T07:51:51;100845.78;;;-2.56;64.97
44027;BME280;29696;55.698;37.460;2022-12-26T07:54:17;100850.94;;;-2.53;65.07
44027;BME280;29696;55.698;37.460;2022-12-26T07:56:44;100852.59;;;-2.49;65.21
44027;BME280;29696;55.698;37.460;2022-12-26T07:59:11;100844.81;;;-2.47;65.28
44027;BME280;29696;55.698;37.460;2022-12-26T08:01:37;100845.72;;;-2.52;64.88
44027;BME280;29696;55.698;37.460;2022-12-26T08:04:03;100847.50;;;-2.55;64.66
44027;BME280;29696;55.698;37.460;2022-12-26T08:06:29;100859.66;;;-2.60;64.57
44027;BME280;29696;55.698;37.460;2022-12-26T08:08:57;100860.53;;;-2.61;64.71
44027;BME280;29696;55.698;37.460;2022-12-26T08:11:23;100866.56;;;-2.61;64.95
44027;BME280;29696;55.698;37.460;2022-12-26T08:13:50;100865.72;;;-2.63;64.95
44027;BME280;29696;55.698;37.460;2022-12-26T08:16:16;100867.44;;;-2.63;65.06
44027;BME280;29696;55.698;37.460;2022-12-26T08:18:42;100874.34;;;-2.64;65.31
44027;BME280;29696;55.698;37.460;2022-12-26T08:21:08;100862.31;;;-2.65;65.21
44027;BME280;29696;55.698;37.460;2022-12-26T08:23:34;100867.53;;;-2.68;65.17
44027;BME280;29696;55.698;37.460;2022-12-26T08:26:05;100858.91;;;-2.68;65.17
44027;BME280;29696;55.698;37.460;2022-12-26T08:28:31;100855.44;;;-2.67;65.58
44027;BME280;29696;55.698;37.460;2022-12-26T08:30:57;100858.88;;;-2.65;65.73
44027;BME280;29696;55.698;37.460;2022-12-26T08:33:23;100866.63;;;-2.65;65.57
44027;BME280;29696;55.698;37.460;2022-12-26T08:35:49;100860.59;;;-2.66;65.55
44027;BME280;29696;55.698;37.460;2022-12-26T08:38:15;100861.41;;;-2.62;65.68
44027;BME280;29696;55.698;37.460;2022-12-26T08:40:41;100857.09;;;-2.60;65.73
44027;BME280;29696;55.698;37.460;2022-12-26T08:43:07;100854.50;;;-2.62;65.80
44027;BME280;29696;55.698;37.460;2022-12-26T08:45:33;100857.03;;;-2.59;65.77
44027;BME280;29696;55.698;37.460;2022-12-26T08:47:59;100850.94;;;-2.55;65.92
44027;BME280;29696;55.698;37.460;2022-12-26T08:50:27;100853.47;;;-2.50;65.98
44027;BME280;29696;55.698;37.460;2022-12-26T08:52:53;100844.78;;;-2.44;65.98
44027;BME280;29696;55.698;37.460;2022-12-26T08:55:19;100850.75;;;-2.42;65.70
44027;BME280;29696;55.698;37.460;2022-12-26T08:57:46;100844.63;;;-2.37;65.70
44027;BME280;29696;55.698;37.460;2022-12-26T09:00:12;100847.13;;;-2.31;65.94
44027;BME280;29696;55.698;37.460;2022-12-26T09:02:38;100846.19;;;-2.25;65.70
44027;BME280;29696;55.698;37.460;2022-12-26T09:05:04;100853.84;;;-2.19;65.71
44027;BME280;29696;55.698;37.460;2022-12-26T09:07:30;100846.88;;;-2.14;65.86
44027;BME280;29696;55.698;37.460;2022-12-26T09:09:56;100852.88;;;-2.10;65.54
44027;BME280;29696;55.698;37.460;2022-12-26T09:12:22;100848.53;;;-2.08;65.14
44027;BME280;29696;55.698;37.460;2022-12-26T09:14:48;100845.94;;;-2.08;64.69
44027;BME280;29696;55.698;37.460;2022-12-26T09:17:15;100852.75;;;-2.04;64.60
44027;BME280;29696;55.698;37.460;2022-12-26T09:19:41;100847.56;;;-2.02;63.71
44027;BME280;29696;55.698;37.460;2022-12-26T09:22:07;100848.41;;;-2.02;63.22
44027;BME280;29696;55.698;37.460;2022-12-26T09:24:51;100857.09;;;-2.03;62.63
44027;BME280;29696;55.698;37.460;2022-12-26T09:27:17;100842.44;;;-2.07;62.31
44027;BME280;29696;55.698;37.460;2022-12-26T09:29:43;100846.88;;;-2.12;62.10
44027;BME280;29696;55.698;37.460;2022-12-26T09:32:09;100850.38;;;-2.16;62.02
44027;BME280;29696;55.698;37.460;2022-12-26T09:34:35;100846.19;;;-2.23;60.91
44027;BME280;29696;55.698;37.460;2022-12-26T09:37:02;100845.38;;;-2.28;61.26
44027;BME280;29696;55.698;37.460;2022-12-26T09:39:28;100837.72;;;-2.35;61.03
44027;BME280;29696;55.698;37.460;2022-12-26T09:47:31;100832.66;;;-2.44;61.89
44027;BME280;29696;55.698;37.460;2022-12-26T09:49:59;100828.31;;;-2.40;62.34
44027;BME280;29696;55.698;37.460;2022-12-26T09:52:33;100829.97;;;-2.36;62.35
44027;BME280;29696;55.698;37.460;2022-12-26T09:55:04;100831.66;;;-2.34;61.81
44027;BME280;29696;55.698;37.460;2022-12-26T09:57:47;100834.22;;;-2.34;61.88
44027;BME280;29696;55.698;37.460;2022-12-26T10:00:19;100835.06;;;-2.32;61.81
44027;BME280;29696;55.698;37.460;2022-12-26T10:02:51;100828.19;;;-2.33;62.04
44027;BME280;29696;55.698;37.460;2022-12-26T10:05:19;100823.03;;;-2.33;61.62
44027;BME280;29696;55.698;37.460;2022-12-26T10:07:50;100821.28;;;-2.34;61.41
44027;BME280;29696;55.698;37.460;2022-12-26T10:13:29;100822.31;;;-2.44;61.34
44027;BME280;29696;55.698;37.460;2022-12-26T10:16:02;100828.44;;;-2.48;61.64
44027;BME280;29696;55.698;37.460;2022-12-26T10:18:33;100825.84;;;-2.49;61.99
44027;BME280;29696;55.698;37.460;2022-12-26T10:26:45;100826.97;;;-2.67;62.15
44027;BME280;29696;55.698;37.460;2022-12-26T10:29:17;100825.34;;;-2.74;62.22
44027;BME280;29696;55.698;37.460;2022-12-26T10:34:51;100810.78;;;-2.80;62.83
44027;BME280;29696;55.698;37.460;2022-12-26T10:37:25;100811.66;;;-2.81;62.98
44027;BME280;29696;55.698;37.460;2022-12-26T10:42:42;100813.34;;;-2.80;63.02
44027;BME280;29696;55.698;37.460;2022-12-26T10:47:54;100807.44;;;-2.88;63.00
44027;BME280;29696;55.698;37.460;2022-12-26T10:50:26;100816.03;;;-2.88;63.19
44027;BME280;29696;55.698;37.460;2022-12-26T10:52:54;100814.34;;;-2.89;63.19
44027;BME280;29696;55.698;37.460;2022-12-26T10:55:23;100810.91;;;-2.89;63.43
44027;BME280;29696;55.698;37.460;2022-12-26T10:57:51;100813.53;;;-2.94;63.41
44027;BME280;29696;55.698;37.460;2022-12-26T11:00:19;100808.44;;;-2.99;63.85
44027;BME280;29696;55.698;37.460;2022-12-26T11:03:08;100807.63;;;-3.04;63.92
44027;BME280;29696;55.698;37.460;2022-12-26T11:05:32;100818.94;;;-3.12;63.87
44027;BME280;29696;55.698;37.460;2022-12-26T11:08:07;100809.56;;;-3.21;63.96
44027;BME280;29696;55.698;37.460;2022-12-26T11:10:34;100813.97;;;-3.28;64.48
44027;BME280;29696;55.698;37.460;2022-12-26T11:13:02;100808.88;;;-3.34;64.74
44027;BME280;29696;55.698;37.460;2022-12-26T11:15:34;100814.88;;;-3.33;65.40
44027;BME280;29696;55.698;37.460;2022-12-26T11:20:54;100822.59;;;-3.30;64.75
44027;BME280;29696;55.698;37.460;2022-12-26T11:23:35;100809.69;;;-3.30;64.88
44027;BME280;29696;55.698;37.460;2022-12-26T11:26:01;100812.25;;;-3.30;64.88
44027;BME280;29696;55.698;37.460;2022-12-26T11:31:20;100802.84;;;-3.36;64.73
44027;BME280;29696;55.698;37.460;2022-12-26T11:33:49;100810.63;;;-3.39;64.97
44027;BME280;29696;55.698;37.460;2022-12-26T11:36:17;100800.34;;;-3.42;65.37
44027;BME280;29696;55.698;37.460;2022-12-26T11:44:27;100804.69;;;-3.46;65.58
44027;BME280;29696;55.698;37.460;2022-12-26T11:47:15;100809.03;;;-3.49;65.34
44027;BME280;29696;55.698;37.460;2022-12-26T11:55:41;100803.09;;;-3.57;65.93
44027;BME280;29696;55.698;37.460;2022-12-26T12:03:46;100817.03;;;-3.72;66.38
44027;BME280;29696;55.698;37.460;2022-12-26T12:06:16;100813.63;;;-3.77;66.38
44027;BME280;29696;55.698;37.460;2022-12-26T12:19:50;100818.19;;;-4.05;66.58
44027;BME280;29696;55.698;37.460;2022-12-26T12:22:24;100819.09;;;-4.11;67.10
44027;BME280;29696;55.698;37.460;2022-12-26T12:36:22;100821.81;;;-4.28;67.65
44027;BME280;29696;55.698;37.460;2022-12-26T12:44:42;100814.06;;;-4.28;68.08
44027;BME280;29696;55.698;37.460;2022-12-26T13:04:33;100805.44;;;-4.25;68.65
44027;BME280;29696;55.698;37.460;2022-12-26T13:07:08;100795.97;;;-4.25;68.71
44027;BME280;29696;55.698;37.460;2022-12-26T13:09:43;100802.00;;;-4.24;69.17
44027;BME280;29696;55.698;37.460;2022-12-26T13:12:14;100809.72;;;-4.23;69.28
44027;BME280;29696;55.698;37.460;2022-12-26T13:14:44;100806.28;;;-4.23;68.70
44027;BME280;29696;55.698;37.460;2022-12-26T13:17:30;100809.72;;;-4.23;68.82
44027;BME280;29696;55.698;37.460;2022-12-26T13:20:05;100813.19;;;-4.24;68.99
44027;BME280;29696;55.698;37.460;2022-12-26T13:22:41;100815.75;;;-4.25;68.99
44027;BME280;29696;55.698;37.460;2022-12-26T13:25:27;100808.06;;;-4.30;69.38
44027;BME280;29696;55.698;37.460;2022-12-26T13:27:56;100807.19;;;-4.29;69.42
44027;BME280;29696;55.698;37.460;2022-12-26T13:30:34;100813.22;;;-4.28;69.67
44027;BME280;29696;55.698;37.460;2022-12-26T13:33:01;100812.34;;;-4.26;69.67
44027;BME280;29696;55.698;37.460;2022-12-26T13:38:12;100826.94;;;-4.25;69.65
44027;BME280;29696;55.698;37.460;2022-12-26T13:40:38;100817.50;;;-4.24;69.63
44027;BME280;29696;55.698;37.460;2022-12-26T13:43:18;100819.19;;;-4.23;69.88
44027;BME280;29696;55.698;37.460;2022-12-26T13:46:31;100817.47;;;-4.21;70.14
44027;BME280;29696;55.698;37.460;2022-12-26T13:48:53;100818.28;;;-4.19;70.01
44027;BME280;29696;55.698;37.460;2022-12-26T13:54:19;100813.09;;;-4.11;70.19
44027;BME280;29696;55.698;37.460;2022-12-26T13:59:35;100808.72;;;-4.03;69.90
44027;BME280;29696;55.698;37.460;2022-12-26T14:02:23;100802.69;;;-4.07;69.37
44027;BME280;29696;55.698;37.460;2022-12-26T14:05:12;100810.47;;;-4.08;69.23
44027;BME280;29696;55.698;37.460;2022-12-26T14:07:45;100803.63;;;-4.13;68.92
44027;BME280;29696;55.698;37.460;2022-12-26T14:22:17;100791.78;;;-4.37;68.73
44027;BME280;29696;55.698;37.460;2022-12-26T14:30:19;100797.84;;;-4.42;68.92
44027;BME280;29696;55.698;37.460;2022-12-26T14:41:09;100778.09;;;-4.45;68.33
44027;BME280;29696;55.698;37.460;2022-12-26T14:47:00;100787.50;;;-4.41;68.60
44027;BME280;29696;55.698;37.460;2022-12-26T14:58:18;100785.81;;;-4.46;68.52
44027;BME280;29696;55.698;37.460;2022-12-26T15:00:49;100782.41;;;-4.48;68.45
44027;BME280;29696;55.698;37.460;2022-12-26T15:07:04;100768.66;;;-4.50;68.44
44027;BME280;29696;55.698;37.460;2022-12-26T15:23:23;100759.28;;;-4.59;69.28
44027;BME280;29696;55.698;37.460;2022-12-26T15:25:58;100762.72;;;-4.62;69.40
44027;BME280;29696;55.698;37.460;2022-12-26T15:34:24;100761.06;;;-4.70;69.88
44027;BME280;29696;55.698;37.460;2022-12-26T15:42:36;100754.28;;;-4.84;69.61
44027;BME280;29696;55.698;37.460;2022-12-26T15:45:15;100757.72;;;-4.83;69.72
44027;BME280;29696;55.698;37.460;2022-12-26T15:50:57;100764.59;;;-4.80;69.62
44027;BME280;29696;55.698;37.460;2022-12-26T16:01:58;100739.69;;;-4.91;71.09
44027;BME280;29696;55.698;37.460;2022-12-26T16:04:34;100738.84;;;-4.88;71.06
44027;BME280;29696;55.698;37.460;2022-12-26T16:07:05;100731.16;;;-4.93;71.47
44027;BME280;29696;55.698;37.460;2022-12-26T16:09:35;100737.13;;;-4.91;71.37
44027;BME280;29696;55.698;37.460;2022-12-26T16:12:13;100735.41;;;-4.89;71.48
44027;BME280;29696;55.698;37.460;2022-12-26T16:14:42;100729.34;;;-4.82;71.77
44027;BME280;29696;55.698;37.460;2022-12-26T16:20:15;100735.28;;;-4.70;71.46
44027;BME280;29696;55.698;37.460;2022-12-26T16:22:41;100742.19;;;-4.72;70.98
44027;BME280;29696;55.698;37.460;2022-12-26T16:25:17;100749.03;;;-4.73;70.96
44027;BME280;29696;55.698;37.460;2022-12-26T16:27:45;100751.69;;;-4.80;70.49
44027;BME280;29696;55.698;37.460;2022-12-26T16:30:14;100745.72;;;-4.87;70.71
44027;BME280;29696;55.698;37.460;2022-12-26T16:32:40;100762.94;;;-4.94;70.82
44027;BME280;29696;55.698;37.460;2022-12-26T16:35:15;100754.38;;;-4.96;71.16
44027;BME280;29696;55.698;37.460;2022-12-26T16:37:42;100748.38;;;-4.99;71.39
44027;BME280;29696;55.698;37.460;2022-12-26T16:43:31;100759.50;;;-4.93;71.94
44027;BME280;29696;55.698;37.460;2022-12-26T16:45:56;100741.47;;;-4.93;71.78
44027;BME280;29696;55.698;37.460;2022-12-26T16:48:25;100748.28;;;-4.89;71.61
44027;BME280;29696;55.698;37.460;2022-12-26T16:50:56;100750.03;;;-4.89;71.55
44027;BME280;29696;55.698;37.460;2022-12-26T16:53:24;100744.03;;;-4.94;71.56
44027;BME280;29696;55.698;37.460;2022-12-26T16:55:56;100755.19;;;-4.94;71.35
44027;BME280;29696;55.698;37.460;2022-12-26T16:58:26;100744.91;;;-4.98;71.30
44027;BME280;29696;55.698;37.460;2022-12-26T17:01:01;100731.22;;;-5.07;71.58
44027;BME280;29696;55.698;37.460;2022-12-26T17:03:33;100730.38;;;-5.10;71.82
44027;BME280;29696;55.698;37.460;2022-12-26T17:06:03;100735.56;;;-5.13;72.02